Time;durP1;ratioP1;P1;durP2;ratioP2;P2;SDS_P1;SDS_P2;PMS_P1;PMS_P2;Temp;Humidity;BMP_temperature;BMP_pressure;BME280_temperature;BME280_humidity;BME280_pressure;Samples;Min_cycle;Max_cycle;Signal;HPM_P1;HPM_P2
2023/06/24 00:00:14;;;;;;;12.00;10.33;;;;;;;17.28;76.85;101855.16;687122;28;1614;-90
2023/06/24 00:00:38;;;;;;;12.45;10.25;;;;;;;17.20;76.97;101847.09;692566;28;1585;-90
2023/06/24 00:00:59;;;;;;;12.45;10.13;;;;;;;17.28;76.92;101852.53;690625;28;1290;-90
2023/06/24 00:01:22;;;;;;;11.07;9.35;;;;;;;17.24;76.83;101855.13;688871;28;1101;-89
2023/06/24 00:01:43;;;;;;;11.38;9.48;;;;;;;17.18;76.94;101838.25;689727;28;1446;-91
2023/06/24 00:02:04;;;;;;;11.50;9.63;;;;;;;17.20;76.87;101847.09;689924;28;1339;-89
2023/06/24 00:02:25;;;;;;;11.75;10.00;;;;;;;17.18;76.96;101847.06;694018;28;1263;-90
2023/06/24 00:02:46;;;;;;;11.57;10.10;;;;;;;17.23;76.82;101858.59;688550;28;1232;-90
2023/06/24 00:03:07;;;;;;;12.57;10.05;;;;;;;17.20;76.58;101858.53;691053;28;1664;-90
2023/06/24 00:03:28;;;;;;;13.13;10.07;;;;;;;17.15;76.76;101849.63;691014;28;1311;-90
2023/06/24 00:03:52;;;;;;;14.07;10.27;;;;;;;17.14;76.71;101850.50;690801;28;1354;-90
2023/06/24 00:04:15;;;;;;;13.52;10.02;;;;;;;17.12;76.45;101846.94;690788;28;1216;-91
2023/06/24 00:04:35;;;;;;;12.70;9.80;;;;;;;17.10;76.66;101846.91;693675;28;1350;-90
2023/06/24 00:05:00;;;;;;;12.07;9.82;;;;;;;17.06;76.53;101841.56;693676;28;1171;-90
2023/06/24 00:05:21;;;;;;;12.82;9.93;;;;;;;17.05;76.58;101845.97;690691;28;1361;-89
2023/06/24 00:05:43;;;;;;;12.75;10.10;;;;;;;17.07;76.62;101845.97;685244;28;1419;-89
2023/06/24 00:06:04;;;;;;;12.35;9.65;;;;;;;17.02;76.63;101842.38;696039;28;1398;-90
2023/06/24 00:06:25;;;;;;;11.65;9.45;;;;;;;17.05;76.62;101845.06;689060;28;1400;-90
2023/06/24 00:06:46;;;;;;;13.68;10.18;;;;;;;16.99;76.62;101845.84;690539;28;1427;-90
2023/06/24 00:07:45;;;;;;;16.70;10.47;;;;;;;17.04;76.80;101848.56;692128;28;1227;-90
2023/06/24 00:08:06;;;;;;;12.70;9.82;;;;;;;16.95;76.81;101844.88;688793;28;1240;-89
2023/06/24 00:08:33;;;;;;;12.65;10.23;;;;;;;16.98;76.99;101844.94;688294;28;1350;-89
2023/06/24 00:09:00;;;;;;;14.38;10.90;;;;;;;16.92;76.90;101834.28;696293;28;1337;-90
2023/06/24 00:09:21;;;;;;;14.88;11.30;;;;;;;16.96;77.18;101836.13;690911;28;1298;-90
2023/06/24 00:09:42;;;;;;;15.10;11.13;;;;;;;16.95;77.01;101834.34;690338;28;1493;-90
2023/06/24 00:10:03;;;;;;;14.27;10.70;;;;;;;16.94;77.11;101837.84;693168;28;1196;-89
2023/06/24 00:10:24;;;;;;;13.50;10.70;;;;;;;16.94;77.03;101834.31;688340;28;1298;-90
2023/06/24 00:10:46;;;;;;;13.05;10.80;;;;;;;17.01;77.01;101851.16;693156;28;1540;-89
2023/06/24 00:11:07;;;;;;;12.90;10.60;;;;;;;16.90;77.01;101825.44;693639;28;1292;-90
2023/06/24 00:11:29;;;;;;;13.32;10.32;;;;;;;16.88;77.08;101823.63;692160;28;1175;-89
2023/06/24 00:11:50;;;;;;;14.30;10.35;;;;;;;16.93;77.15;101829.91;691646;28;1885;-89
2023/06/24 00:12:18;;;;;;;14.52;10.43;;;;;;;16.92;77.19;101836.94;691017;28;1956;-90
2023/06/24 00:12:41;;;;;;;14.45;10.30;;;;;;;16.98;77.16;101847.56;691115;28;1346;-90
2023/06/24 00:13:02;;;;;;;13.73;10.60;;;;;;;16.95;77.06;101836.06;693019;28;1341;-89
2023/06/24 00:13:22;;;;;;;15.35;10.80;;;;;;;16.94;77.40;101836.94;688401;28;1113;-90
2023/06/24 00:13:44;;;;;;;13.85;10.43;;;;;;;16.88;77.27;101821.91;691042;28;1227;-90
2023/06/24 00:14:06;;;;;;;12.85;9.90;;;;;;;16.98;77.34;101841.44;691150;28;1340;-89
2023/06/24 00:14:28;;;;;;;13.23;9.90;;;;;;;16.89;77.39;101828.09;691153;28;1347;-89
2023/06/24 00:14:50;;;;;;;13.27;10.32;;;;;;;16.99;77.59;101851.97;693605;28;1208;-89
2023/06/24 00:15:11;;;;;;;14.23;10.48;;;;;;;16.99;77.86;101841.44;690313;28;1208;-90
2023/06/24 00:15:32;;;;;;;13.32;10.52;;;;;;;17.03;77.62;101838.88;691895;28;1150;-90
2023/06/24 00:16:02;;;;;;;14.07;10.45;;;;;;;17.06;77.67;101850.38;689038;28;1300;-90
2023/06/24 00:16:27;;;;;;;13.95;10.60;;;;;;;16.92;77.74;101830.75;688290;28;1492;-89
2023/06/24 00:16:51;;;;;;;13.90;10.70;;;;;;;17.03;77.91;101846.78;691364;28;1333;-87
2023/06/24 00:17:11;;;;;;;13.80;10.88;;;;;;;16.91;77.87;101821.94;690818;28;1578;-89
2023/06/24 00:17:32;;;;;;;15.23;10.90;;;;;;;17.03;77.97;101846.78;685756;28;1191;-90
2023/06/24 00:17:53;;;;;;;15.38;10.52;;;;;;;17.00;77.87;101837.06;690404;28;1318;-90
2023/06/24 00:18:14;;;;;;;16.30;10.60;;;;;;;17.06;77.83;101847.72;692533;28;1589;-89
2023/06/24 00:18:36;;;;;;;15.05;10.93;;;;;;;16.96;77.92;101828.22;691116;28;1118;-88
2023/06/24 00:18:58;;;;;;;15.52;10.98;;;;;;;16.97;77.84;101835.25;690909;28;1311;-89
2023/06/24 00:19:28;;;;;;;14.50;10.80;;;;;;;17.10;77.87;101848.66;695754;28;1900;-89
2023/06/24 00:19:49;;;;;;;13.77;10.48;;;;;;;17.05;77.90;101847.69;693668;28;1223;-90
2023/06/24 00:20:28;;;;;;;14.07;10.68;;;;;;;17.05;77.92;101845.06;692583;28;1229;-90
2023/06/24 00:20:50;;;;;;;12.20;10.00;;;;;;;16.97;77.88;101837.03;691209;28;1395;-89
2023/06/24 00:21:11;;;;;;;12.48;10.07;;;;;;;17.03;77.77;101846.78;688317;28;1216;-90
2023/06/24 00:21:32;;;;;;;13.52;10.70;;;;;;;16.97;77.82;101848.44;691151;28;1468;-90
2023/06/24 00:21:53;;;;;;;13.23;10.60;;;;;;;16.96;77.92;101846.66;694564;28;1235;-90
2023/06/24 00:22:14;;;;;;;12.75;10.70;;;;;;;16.95;77.84;101839.63;696506;28;1364;-90
2023/06/24 00:22:35;;;;;;;13.80;10.60;;;;;;;16.99;77.96;101844.06;690915;28;1210;-89
2023/06/24 00:22:55;;;;;;;14.43;10.90;;;;;;;16.97;77.75;101840.53;693080;28;1382;-90
2023/06/24 00:23:24;;;;;;;14.35;10.75;;;;;;;16.94;77.86;101843.13;690831;28;1307;-90
2023/06/24 00:23:49;;;;;;;14.05;10.85;;;;;;;16.95;77.84;101849.25;687938;28;1459;-90
2023/06/24 00:24:10;;;;;;;15.63;11.23;;;;;;;16.91;78.08;101837.78;688596;28;1211;-90
2023/06/24 00:24:31;;;;;;;14.57;11.10;;;;;;;16.91;78.10;101840.41;693735;28;1093;-90
2023/06/24 00:24:51;;;;;;;13.60;11.25;;;;;;;16.89;77.92;101839.50;690135;28;1248;-90
2023/06/24 00:25:12;;;;;;;13.77;11.30;;;;;;;16.86;77.96;101834.19;699248;28;1249;-90
2023/06/24 00:25:33;;;;;;;14.25;11.27;;;;;;;16.90;77.93;101843.91;691280;28;1452;-91
2023/06/24 00:25:55;;;;;;;13.52;10.68;;;;;;;16.85;78.21;101837.69;691183;28;1202;-91
2023/06/24 00:26:16;;;;;;;12.32;10.68;;;;;;;16.91;78.21;101848.31;691031;28;1282;-91
2023/06/24 00:26:37;;;;;;;13.18;10.88;;;;;;;16.80;78.17;101828.78;690936;28;1417;-90
2023/06/24 00:26:58;;;;;;;15.77;11.38;;;;;;;16.87;78.42;101843.84;687705;28;1192;-91
2023/06/24 00:27:21;;;;;;;15.65;11.02;;;;;;;16.86;78.23;101844.72;687845;28;1323;-90
2023/06/24 00:27:42;;;;;;;15.95;11.40;;;;;;;16.89;78.46;101851.81;688323;28;1268;-90
2023/06/24 00:28:03;;;;;;;13.77;11.20;;;;;;;16.84;78.43;101833.28;690023;28;1331;-88
2023/06/24 00:28:25;;;;;;;13.80;11.43;;;;;;;16.83;78.51;101840.28;690980;28;1275;-88
2023/06/24 00:28:46;;;;;;;13.00;10.52;;;;;;;16.82;78.51;101842.88;693748;28;1218;-89
2023/06/24 00:29:06;;;;;;;13.82;10.30;;;;;;;16.80;78.40;101839.31;690870;28;1362;-89
2023/06/24 00:29:27;;;;;;;14.02;10.25;;;;;;;16.82;78.67;101842.88;690896;28;1702;-89
2023/06/24 00:29:49;;;;;;;15.93;10.80;;;;;;;16.79;78.79;101845.47;689377;28;1304;-89
2023/06/24 00:30:12;;;;;;;15.27;11.27;;;;;;;16.81;78.82;101847.28;691539;28;1519;-89
2023/06/24 00:30:32;;;;;;;14.68;11.52;;;;;;;16.78;78.94;101833.16;693705;28;1335;-89
2023/06/24 00:30:53;;;;;;;15.02;12.20;;;;;;;16.82;78.83;101840.22;690681;28;1910;-89
2023/06/24 00:31:14;;;;;;;14.85;11.80;;;;;;;16.77;79.05;101829.59;693685;28;1227;-90
2023/06/24 00:31:36;;;;;;;14.77;11.50;;;;;;;16.84;79.09;101843.81;694541;28;1218;-89
2023/06/24 00:31:58;;;;;;;13.77;10.85;;;;;;;16.81;79.04;101838.47;696143;28;1164;-89
2023/06/24 00:32:19;;;;;;;13.23;10.80;;;;;;;16.82;79.12;101837.59;686950;28;2001;-89
2023/06/24 00:32:41;;;;;;;12.53;10.50;;;;;;;16.78;79.09;101835.78;688397;28;1149;-89
2023/06/24 00:33:02;;;;;;;13.30;10.50;;;;;;;16.82;79.12;101841.13;691490;28;1216;-88
2023/06/24 00:33:24;;;;;;;13.45;10.63;;;;;;;16.82;78.89;101845.50;688161;28;1547;-90
2023/06/24 00:33:45;;;;;;;14.45;10.90;;;;;;;16.79;79.16;101842.81;690843;28;1360;-89
2023/06/24 00:34:06;;;;;;;14.00;10.90;;;;;;;16.77;79.13;101842.78;690928;28;1088;-89
2023/06/24 00:34:26;;;;;;;15.57;11.27;;;;;;;16.73;79.12;101838.31;690672;28;1433;-89
2023/06/24 00:34:47;;;;;;;15.18;11.00;;;;;;;16.67;79.28;101823.25;693692;28;1199;-89
2023/06/24 00:35:10;;;;;;;15.77;11.25;;;;;;;16.78;78.99;101846.31;693622;28;1282;-89
2023/06/24 00:35:31;;;;;;;14.23;11.20;;;;;;;16.69;78.99;101832.09;689334;28;1320;-89
2023/06/24 00:35:52;;;;;;;13.80;11.30;;;;;;;16.75;79.09;101846.25;689887;28;1598;-89
2023/06/24 00:36:13;;;;;;;12.70;10.65;;;;;;;16.68;79.22;101838.25;693922;28;1265;-89
2023/06/24 00:36:38;;;;;;;13.27;10.75;;;;;;;16.71;79.36;101843.56;691262;28;1470;-89
2023/06/24 00:37:07;;;;;;;13.60;10.45;;;;;;;16.66;79.25;101837.31;690678;28;1271;-89
2023/06/24 00:37:28;;;;;;;14.13;10.75;;;;;;;16.67;79.33;101835.56;692858;28;1748;-89
2023/06/24 00:37:49;;;;;;;14.27;11.55;;;;;;;16.67;79.41;101839.06;690367;28;1228;-89
2023/06/24 00:38:09;;;;;;;15.30;12.50;;;;;;;16.64;79.46;101844.28;688254;28;1160;-89
2023/06/24 00:38:32;;;;;;;14.80;12.10;;;;;;;16.65;79.40;101830.25;694381;28;1537;-89
2023/06/24 00:38:55;;;;;;;14.45;11.30;;;;;;;16.67;79.47;101844.34;693269;28;1337;-89
2023/06/24 00:39:18;;;;;;;13.80;10.45;;;;;;;16.63;79.52;101828.44;690840;28;1255;-89
2023/06/24 00:39:39;;;;;;;14.00;10.63;;;;;;;16.65;79.88;101845.19;690816;28;1326;-88
2023/06/24 00:40:00;;;;;;;15.05;11.57;;;;;;;16.66;79.55;101842.56;690291;28;1957;-88
2023/06/24 00:40:21;;;;;;;14.15;11.50;;;;;;;16.64;79.50;101838.13;693570;28;1251;-89
2023/06/24 00:40:41;;;;;;;14.82;11.65;;;;;;;16.55;79.72;101831.81;691021;28;1070;-89
2023/06/24 00:41:03;;;;;;;14.75;12.23;;;;;;;16.61;79.56;101838.97;690187;28;1659;-89
2023/06/24 00:41:25;;;;;;;15.20;12.60;;;;;;;16.65;79.70;101846.06;693751;28;1223;-89
2023/06/24 00:41:48;;;;;;;15.63;12.60;;;;;;;16.65;79.65;101845.19;691836;28;1299;-89
2023/06/24 00:42:09;;;;;;;15.00;12.07;;;;;;;16.61;79.61;101838.97;688258;28;1378;-89
2023/06/24 00:42:31;;;;;;;14.35;11.63;;;;;;;16.60;79.61;101833.66;693532;28;1050;-89
2023/06/24 00:42:52;;;;;;;13.55;11.43;;;;;;;16.60;79.46;101841.56;694981;28;1270;-90
2023/06/24 00:43:12;;;;;;;13.57;11.35;;;;;;;16.65;79.51;101856.59;693624;28;1640;-88
2023/06/24 00:43:33;;;;;;;13.80;11.37;;;;;;;16.55;79.63;101833.56;690636;28;1267;-89
2023/06/24 00:43:57;;;;;;;13.93;11.50;;;;;;;16.58;79.65;101844.16;694829;28;1240;-89
2023/06/24 00:44:19;;;;;;;13.70;11.32;;;;;;;16.54;79.56;101837.94;690777;28;1340;-89
2023/06/24 00:44:40;;;;;;;14.63;11.50;;;;;;;16.59;79.59;101845.94;687598;28;1541;-89
2023/06/24 00:45:03;;;;;;;15.70;11.60;;;;;;;16.56;79.61;101845.88;690157;28;1297;-89
2023/06/24 00:45:25;;;;;;;16.92;11.88;;;;;;;16.57;79.58;101843.28;690887;28;1317;-89
2023/06/24 00:45:48;;;;;;;16.05;12.00;;;;;;;16.52;79.81;101844.03;693742;28;1201;-89
2023/06/24 00:46:09;;;;;;;15.43;11.70;;;;;;;16.57;79.56;101847.66;693324;28;1557;-89
2023/06/24 00:46:33;;;;;;;15.30;11.88;;;;;;;16.48;79.90;101836.94;688125;28;1245;-89
2023/06/24 00:46:54;;;;;;;14.32;11.80;;;;;;;16.57;79.41;101848.56;694359;28;1548;-88
2023/06/24 00:47:15;;;;;;;14.38;12.07;;;;;;;16.52;79.92;101836.13;691005;28;1432;-89
2023/06/24 00:47:36;;;;;;;14.82;12.20;;;;;;;16.58;80.10;101845.06;689249;28;1665;-89
2023/06/24 00:48:02;;;;;;;15.30;12.27;;;;;;;16.58;80.00;101844.16;687590;28;1576;-89
2023/06/24 00:48:24;;;;;;;15.70;12.38;;;;;;;16.59;79.93;101851.22;690808;28;948;-89
2023/06/24 00:48:45;;;;;;;15.50;12.50;;;;;;;16.53;80.06;101836.16;690904;28;1272;-89
2023/06/24 00:49:06;;;;;;;15.73;12.70;;;;;;;16.60;80.09;101847.75;690818;28;1225;-89
2023/06/24 00:49:26;;;;;;;18.00;12.30;;;;;;;16.58;80.17;101845.06;695809;28;1184;-89
2023/06/24 00:49:47;;;;;;;17.30;11.90;;;;;;;16.66;80.14;101857.50;691453;28;1661;-88
2023/06/24 00:50:08;;;;;;;17.23;11.57;;;;;;;16.59;80.21;101845.94;688684;28;1172;-89
2023/06/24 00:50:29;;;;;;;14.70;11.80;;;;;;;16.61;80.11;101844.25;691339;28;1336;-89
2023/06/24 00:50:51;;;;;;;15.93;12.20;;;;;;;16.54;80.16;101842.34;693118;28;1262;-89
2023/06/24 00:51:12;;;;;;;15.35;12.10;;;;;;;16.58;80.16;101846.81;694077;28;1363;-87
2023/06/24 00:51:35;;;;;;;16.67;11.55;;;;;;;16.60;80.01;101853.00;688942;28;1443;-89
2023/06/24 00:51:56;;;;;;;15.38;10.90;;;;;;;16.56;80.04;101845.88;688628;28;1288;-89
2023/06/24 00:52:17;;;;;;;15.82;10.80;;;;;;;16.57;79.76;101853.84;691635;28;1993;-89
2023/06/24 00:52:42;;;;;;;14.98;11.18;;;;;;;16.57;79.86;101860.84;688182;28;1178;-89
2023/06/24 00:53:03;;;;;;;15.57;12.00;;;;;;;16.55;79.88;101860.78;694025;28;1257;-89
2023/06/24 00:53:24;;;;;;;13.87;11.83;;;;;;;16.49;79.88;101843.97;691261;28;1266;-89
2023/06/24 00:53:45;;;;;;;13.02;11.48;;;;;;;16.52;79.64;101854.56;691849;28;1262;-88
2023/06/24 00:54:06;;;;;;;12.93;11.32;;;;;;;16.52;79.86;101855.47;689393;28;1350;-89
2023/06/24 00:54:30;;;;;;;16.20;11.50;;;;;;;16.52;79.89;101852.84;691196;28;1263;-89
2023/06/24 00:54:51;;;;;;;15.30;10.88;;;;;;;16.45;79.81;101843.03;690576;28;1322;-89
2023/06/24 00:55:14;;;;;;;15.45;11.00;;;;;;;16.40;79.90;101837.66;694077;28;1319;-89
2023/06/24 00:55:36;;;;;;;13.18;11.40;;;;;;;16.43;79.80;101840.34;688746;28;1454;-88
2023/06/24 00:56:02;;;;;;;13.75;11.38;;;;;;;16.48;80.00;101847.47;687178;28;1454;-89
2023/06/24 00:56:28;;;;;;;14.55;11.48;;;;;;;16.51;79.90;101858.97;688861;28;1355;-89
2023/06/24 00:56:49;;;;;;;13.65;11.25;;;;;;;16.44;79.92;101847.44;688477;28;1325;-88
2023/06/24 00:57:12;;;;;;;14.25;11.40;;;;;;;16.44;79.84;101852.69;691210;28;1225;-88
2023/06/24 00:57:33;;;;;;;14.63;11.60;;;;;;;16.44;79.97;101850.06;693967;28;1295;-89
2023/06/24 00:57:55;;;;;;;15.30;12.05;;;;;;;16.44;79.84;101852.69;693493;28;1184;-89
2023/06/24 00:58:20;;;;;;;15.23;12.13;;;;;;;16.42;79.94;101849.13;691003;28;1235;-89
2023/06/24 00:58:42;;;;;;;14.57;11.73;;;;;;;16.41;79.93;101842.06;688655;28;1333;-89
2023/06/24 00:59:06;;;;;;;14.40;11.38;;;;;;;16.39;80.02;101846.44;698618;28;1121;-88
2023/06/24 00:59:29;;;;;;;15.65;12.05;;;;;;;16.39;80.11;101842.91;688746;28;1238;-89
2023/06/24 00:59:53;;;;;;;15.27;11.95;;;;;;;16.43;80.21;101850.03;692289;28;1805;-89
2023/06/24 01:00:17;;;;;;;13.40;11.75;;;;;;;16.42;80.17;101851.75;692330;28;1219;-88
2023/06/24 01:00:37;;;;;;;13.43;11.95;;;;;;;16.45;80.35;101848.31;692673;28;1204;-89
2023/06/24 01:00:58;;;;;;;14.13;12.20;;;;;;;16.44;80.33;101852.69;695794;28;1765;-89
2023/06/24 01:01:20;;;;;;;15.80;12.07;;;;;;;16.49;80.28;101855.44;694250;28;1564;-88
2023/06/24 01:01:41;;;;;;;15.95;11.90;;;;;;;16.43;80.27;101844.75;694204;28;1086;-88
2023/06/24 01:02:04;;;;;;;16.85;11.63;;;;;;;16.43;80.01;101845.63;688373;28;1267;-89
2023/06/24 01:02:28;;;;;;;16.70;11.80;;;;;;;16.41;80.25;101851.75;693809;28;1353;-88
2023/06/24 01:02:50;;;;;;;15.00;11.70;;;;;;;16.47;80.32;101861.50;689071;28;1214;-88
2023/06/24 01:03:13;;;;;;;15.48;12.20;;;;;;;16.42;80.50;101851.75;688540;28;1381;-89
2023/06/24 01:03:34;;;;;;;14.23;12.02;;;;;;;16.39;80.47;101851.69;687014;28;1272;-89
2023/06/24 01:03:55;;;;;;;15.17;11.90;;;;;;;16.41;80.56;101857.00;690155;28;1186;-89
2023/06/24 01:04:16;;;;;;;16.17;11.43;;;;;;;16.38;80.83;101852.56;691173;28;1239;-89
2023/06/24 01:04:37;;;;;;;17.38;12.05;;;;;;;16.39;80.62;101859.59;691030;28;1483;-88
2023/06/24 01:04:58;;;;;;;17.35;12.80;;;;;;;16.36;80.96;101849.00;691621;28;1224;-89
2023/06/24 01:05:23;;;;;;;15.40;12.80;;;;;;;16.42;80.72;101862.28;692265;28;1872;-88
2023/06/24 01:05:45;;;;;;;15.82;12.60;;;;;;;16.42;80.71;101858.78;697366;28;1365;-89
2023/06/24 01:06:09;;;;;;;16.50;12.02;;;;;;;16.42;81.01;101859.66;694738;28;1306;-88
2023/06/24 01:06:32;;;;;;;17.58;12.00;;;;;;;16.44;80.78;101851.78;688682;28;1161;-89
2023/06/24 01:06:53;;;;;;;16.98;11.85;;;;;;;16.47;80.49;101853.63;696067;28;1524;-88
2023/06/24 01:07:16;;;;;;;16.83;12.55;;;;;;;16.46;80.76;101854.47;693987;28;1448;-88
2023/06/24 01:07:38;;;;;;;15.68;12.90;;;;;;;16.45;80.69;101848.31;688649;28;1690;-89
2023/06/24 01:08:00;;;;;;;16.35;12.85;;;;;;;16.51;80.71;101853.69;690110;28;1324;-89
2023/06/24 01:08:22;;;;;;;15.05;11.90;;;;;;;16.45;80.48;101850.94;690683;28;1664;-89
2023/06/24 01:08:43;;;;;;;14.65;12.00;;;;;;;16.50;80.64;101851.03;691272;28;1375;-89
2023/06/24 01:09:05;;;;;;;13.65;11.63;;;;;;;16.50;80.65;101857.19;693103;28;1223;-88
2023/06/24 01:09:26;;;;;;;14.00;12.03;;;;;;;16.53;80.64;101859.00;691309;28;1256;-89
2023/06/24 01:09:47;;;;;;;13.63;11.50;;;;;;;16.53;80.58;101859.00;685819;28;1310;-89
2023/06/24 01:10:09;;;;;;;13.65;11.75;;;;;;;16.49;80.44;101847.53;693924;28;1631;-89
2023/06/24 01:10:30;;;;;;;13.48;11.82;;;;;;;16.35;80.50;101836.66;691199;28;1111;-89
2023/06/24 01:10:51;;;;;;;13.57;12.07;;;;;;;16.38;80.69;101852.56;689241;28;1385;-89
2023/06/24 01:11:12;;;;;;;14.55;12.30;;;;;;;16.33;80.73;101848.94;688326;28;1244;-88
2023/06/24 01:12:13;;;;;;;15.02;12.43;;;;;;;16.35;81.03;101862.16;688722;28;1479;-88
2023/06/24 01:12:41;;;;;;;17.10;11.32;;;;;;;16.27;81.25;101860.22;691400;28;1114;-88
2023/06/24 01:13:03;;;;;;;17.63;11.80;;;;;;;16.24;81.27;101853.97;693205;28;1330;-88
2023/06/24 01:13:23;;;;;;;17.33;12.00;;;;;;;16.10;81.30;101830.84;690904;28;1279;-89
2023/06/24 01:13:44;;;;;;;15.52;12.10;;;;;;;16.12;81.46;101839.66;696870;28;1210;-89
2023/06/24 01:14:05;;;;;;;15.20;12.02;;;;;;;16.18;81.20;101839.81;690395;28;1261;-89
2023/06/24 01:14:26;;;;;;;13.95;11.68;;;;;;;16.28;81.20;101850.56;688187;28;1965;-88
2023/06/24 01:14:47;;;;;;;14.30;11.65;;;;;;;16.20;80.77;101837.22;687707;28;1213;-88
2023/06/24 01:15:10;;;;;;;14.00;11.27;;;;;;;16.25;80.94;101845.25;691342;28;1208;-88
2023/06/24 01:15:31;;;;;;;14.13;11.25;;;;;;;16.20;80.83;101844.22;688648;28;1328;-88
2023/06/24 01:15:52;;;;;;;13.63;11.10;;;;;;;16.22;80.77;101839.88;687161;28;1229;-88
2023/06/24 01:16:25;;;;;;;14.07;11.30;;;;;;;16.23;80.75;101842.53;690687;28;1241;-88
2023/06/24 01:17:12;;;;;;;14.75;11.68;;;;;;;16.25;80.51;101845.25;688515;28;1382;-88
2023/06/24 01:17:43;;;;;;;13.30;11.30;;;;;;;16.21;80.54;101839.00;690016;28;1496;-88
2023/06/24 01:18:20;;;;;;;13.70;11.93;;;;;;;16.28;80.57;101850.56;688602;28;1442;-88
2023/06/24 01:18:49;;;;;;;13.63;11.80;;;;;;;16.20;80.79;101844.22;690785;28;1400;-88
2023/06/24 01:19:27;;;;;;;14.27;11.32;;;;;;;16.20;80.70;101836.31;691292;28;1320;-88
2023/06/24 01:20:11;;;;;;;14.18;11.45;;;;;;;16.25;80.91;101851.41;686092;28;1689;-88
2023/06/24 01:20:41;;;;;;;13.77;11.40;;;;;;;16.24;80.94;101853.97;694746;28;1227;-88
2023/06/24 01:21:16;;;;;;;13.60;11.15;;;;;;;16.21;80.92;101848.66;690635;28;1204;-89
2023/06/24 01:22:12;;;;;;;14.20;11.27;;;;;;;16.13;80.70;101836.19;692982;28;1215;-88
2023/06/24 01:22:46;;;;;;;13.25;10.77;;;;;;;16.14;80.97;101843.25;690052;28;1407;-88
2023/06/24 01:23:25;;;;;;;14.95;11.25;;;;;;;16.18;81.12;101850.34;688415;28;1259;-88
2023/06/24 01:23:48;;;;;;;15.32;11.88;;;;;;;16.17;81.06;101851.19;694084;28;1422;-89
2023/06/24 01:24:30;;;;;;;14.63;11.60;;;;;;;16.13;81.10;101848.47;694069;28;1297;-88
2023/06/24 01:25:26;;;;;;;13.05;10.85;;;;;;;16.11;81.24;101852.81;689384;28;1349;-88
2023/06/24 01:26:24;;;;;;;12.80;10.60;;;;;;;16.14;81.16;101858.13;688526;28;1275;-88
2023/06/24 01:27:10;;;;;;;15.82;12.00;;;;;;;16.11;81.33;101853.69;687759;28;1441;-88
2023/06/24 01:27:55;;;;;;;16.35;12.35;;;;;;;16.11;81.61;101855.44;686058;28;1244;-88
2023/06/24 01:28:44;;;;;;;16.40;12.27;;;;;;;16.10;81.64;101849.28;693420;28;1394;-88
2023/06/24 01:29:21;;;;;;;14.57;10.88;;;;;;;16.10;81.62;101859.81;692321;28;1243;-88
2023/06/24 01:30:21;;;;;;;13.45;10.50;;;;;;;16.08;81.65;101848.38;688653;28;1332;-88
2023/06/24 01:31:17;;;;;;;14.63;12.25;;;;;;;16.03;81.85;101844.72;688646;28;1286;-88
2023/06/24 01:31:57;;;;;;;15.82;12.27;;;;;;;16.06;81.72;101849.19;696341;28;1472;-88
2023/06/24 01:32:35;;;;;;;14.00;12.10;;;;;;;15.97;81.89;101845.50;690971;28;1981;-88
2023/06/24 01:33:04;;;;;;;14.38;12.25;;;;;;;15.96;81.98;101845.44;694269;28;1221;-88
2023/06/24 01:33:36;;;;;;;15.57;12.00;;;;;;;15.94;81.99;101849.78;691316;28;1201;-88
2023/06/24 01:34:22;;;;;;;14.57;11.70;;;;;;;15.83;82.08;101828.47;686945;28;1243;-88
2023/06/24 01:35:00;;;;;;;13.98;12.23;;;;;;;15.92;82.29;101843.59;690630;28;1973;-88
2023/06/24 01:35:25;;;;;;;15.15;12.43;;;;;;;15.94;82.18;101849.78;691413;28;1367;-88
2023/06/24 01:35:47;;;;;;;15.27;11.90;;;;;;;15.89;82.17;101847.97;692869;28;1219;-88
2023/06/24 01:36:12;;;;;;;16.05;12.20;;;;;;;15.94;82.32;101849.78;693930;28;1378;-88
2023/06/24 01:36:36;;;;;;;16.48;12.80;;;;;;;15.98;82.45;101851.66;691198;28;1374;-88
2023/06/24 01:37:28;;;;;;;15.85;13.00;;;;;;;15.99;82.49;101853.44;692868;28;1391;-88
2023/06/24 01:37:52;;;;;;;13.90;11.90;;;;;;;15.91;82.54;101845.34;690851;28;1265;-88
2023/06/24 01:38:23;;;;;;;14.98;12.30;;;;;;;15.88;82.78;101843.53;690930;28;1716;-88
2023/06/24 01:39:03;;;;;;;15.40;12.23;;;;;;;15.95;82.67;101846.31;694243;28;1275;-88
2023/06/24 01:39:27;;;;;;;16.20;12.88;;;;;;;15.98;83.12;101854.28;688352;28;1304;-88
2023/06/24 01:40:20;;;;;;;16.92;13.50;;;;;;;15.99;83.20;101856.06;688206;28;1315;-88
2023/06/24 01:40:44;;;;;;;15.93;13.13;;;;;;;16.01;83.21;101849.09;691074;28;1343;-88
2023/06/24 01:41:10;;;;;;;16.33;12.80;;;;;;;16.00;83.45;101849.94;691019;28;1313;-88
2023/06/24 01:41:42;;;;;;;16.75;12.43;;;;;;;16.00;83.25;101849.94;693456;28;1896;-88
2023/06/24 01:42:08;;;;;;;17.77;12.95;;;;;;;15.89;83.58;101837.44;693401;28;1275;-88
2023/06/24 01:42:30;;;;;;;17.15;13.10;;;;;;;15.90;83.70;101843.56;691125;28;1386;-88
2023/06/24 01:42:52;;;;;;;16.70;12.95;;;;;;;15.83;83.72;101837.28;690275;28;1221;-87
2023/06/24 01:43:16;;;;;;;15.55;12.82;;;;;;;15.85;83.94;101839.97;688494;28;1283;-87
2023/06/24 01:43:42;;;;;;;16.58;13.05;;;;;;;15.82;83.89;101830.25;687406;28;1647;-88
2023/06/24 01:44:04;;;;;;;17.80;13.68;;;;;;;15.83;83.98;101842.53;695640;28;1309;-88
2023/06/24 01:44:28;;;;;;;17.40;13.35;;;;;;;15.83;84.10;101836.38;692582;28;1248;-88
2023/06/24 01:44:51;;;;;;;17.77;13.02;;;;;;;15.82;84.21;101832.88;691605;28;1342;-88
2023/06/24 01:45:16;;;;;;;17.52;13.57;;;;;;;15.87;84.19;101840.88;696142;28;1260;-88
2023/06/24 01:45:42;;;;;;;16.65;13.73;;;;;;;15.87;84.11;101839.13;691073;28;1282;-88
2023/06/24 01:46:06;;;;;;;16.15;13.18;;;;;;;15.78;84.42;101833.66;691500;28;1251;-88
2023/06/24 01:46:29;;;;;;;16.60;13.50;;;;;;;15.76;84.49;101835.34;688342;28;1286;-88
2023/06/24 01:46:54;;;;;;;15.40;13.10;;;;;;;15.76;84.62;101838.84;688507;28;1228;-86
2023/06/24 01:47:21;;;;;;;17.17;13.07;;;;;;;15.73;84.72;101835.28;691064;28;1333;-88
2023/06/24 01:47:47;;;;;;;17.10;12.52;;;;;;;15.78;84.82;101846.81;694059;28;1422;-88
2023/06/24 01:48:28;;;;;;;17.30;12.60;;;;;;;15.77;84.91;101839.75;691251;28;1252;-88
2023/06/24 01:48:52;;;;;;;16.23;13.20;;;;;;;15.71;84.93;101831.72;691638;28;1222;-87
2023/06/24 01:49:17;;;;;;;18.45;13.63;;;;;;;15.69;85.05;101828.16;691183;28;1347;-88
2023/06/24 01:49:41;;;;;;;18.48;13.18;;;;;;;15.76;85.06;101845.88;688643;28;1272;-87
2023/06/24 01:50:03;;;;;;;16.25;12.82;;;;;;;15.74;84.97;101847.59;690439;28;1340;-88
2023/06/24 01:50:26;;;;;;;15.43;12.90;;;;;;;15.70;85.04;101835.19;691147;28;1268;-88
2023/06/24 01:51:09;;;;;;;16.77;12.98;;;;;;;15.67;85.10;101829.88;688370;28;1206;-88
2023/06/24 01:51:32;;;;;;;17.00;13.40;;;;;;;15.69;85.11;101833.44;688561;28;1463;-88
2023/06/24 01:51:57;;;;;;;17.58;13.30;;;;;;;15.72;85.16;101830.84;694506;28;1227;-87
2023/06/24 01:52:30;;;;;;;19.30;12.85;;;;;;;15.69;85.13;101834.34;693742;28;1975;-88
2023/06/24 01:52:53;;;;;;;16.88;12.40;;;;;;;15.63;85.12;101826.28;690660;28;1479;-87
2023/06/24 01:53:17;;;;;;;14.57;12.50;;;;;;;15.67;85.08;101829.88;689293;28;1273;-88
2023/06/24 01:53:42;;;;;;;14.75;12.52;;;;;;;15.63;85.18;101829.78;696300;28;1326;-88
2023/06/24 01:54:07;;;;;;;15.93;13.10;;;;;;;15.65;85.26;101834.19;697936;28;1290;-88
2023/06/24 01:54:29;;;;;;;16.35;13.43;;;;;;;15.63;85.28;101829.78;685733;28;1221;-87
2023/06/24 01:54:53;;;;;;;15.68;13.20;;;;;;;15.63;85.33;101835.06;688386;28;1581;-87
2023/06/24 01:55:21;;;;;;;16.02;13.38;;;;;;;15.62;85.47;101822.75;693946;28;1239;-88
2023/06/24 01:55:43;;;;;;;16.70;13.30;;;;;;;15.65;85.49;101831.56;696775;28;1375;-88
2023/06/24 01:56:07;;;;;;;16.38;13.00;;;;;;;15.61;85.43;101826.25;691808;28;1366;-87
2023/06/24 01:56:29;;;;;;;16.67;12.82;;;;;;;15.54;85.49;101816.41;688192;28;1443;-87
2023/06/24 01:56:54;;;;;;;16.35;12.38;;;;;;;15.57;85.32;101821.78;693980;28;1293;-87